Terminal Aerodrome Forecast
Issued by NWS Wilmington, NC

Home | Current Version | Previous Version | Text Only | Print | Product List | Glossary On
Versions: 1 2 3 4 5 6 7 8 9 10 11 12 13 14 15 16
000
FTUS42 KILM 301148
TAFLBT
TAF
KLBT 301148Z 3012/3112 03003KT P6SM BKN250
     FM301400 05006KT P6SM SCT045 BKN200
     FM301900 09008KT 6SM -SHRA BKN045
     FM310000 12004KT 4SM SHRA BKN025=

USA.gov is the U.S. government's official web portal to all federal, state and local government web resources and services.